Terminal Aerodrome Forecast
Issued by NWS Tampa Bay Area, FL

Home | Current Version | Previous Version | Text Only | Print | Product List | Glossary Off
Versions: 1 2 3 4 5 6 7 8 9 10 11 12 13

000
FTUS42 KTBW 240500
TAFFMY
TAF
KFMY 240524Z 2406/2506 05008KT P6SM SCT250
     FM241400 05013G20KT P6SM BKN035
     FM242300 03011KT P6SM SCT040
     FM250300 01010KT P6SM FEW040 SCT250=

USA.gov is the U.S. government's official web portal to all federal, state and local government web resources and services.